sensor_id;sensor_type;location;lat;lon;timestamp;P1;durP1;ratioP1;P2;durP2;ratioP2
49828;SDS011;35723;51.194;5.112;2023-10-09T00:01:06;19.88;;;7.57;;
49828;SDS011;35723;51.194;5.112;2023-10-09T00:03:42;23.30;;;7.90;;
49828;SDS011;35723;51.194;5.112;2023-10-09T00:06:09;20.30;;;8.13;;
49828;SDS011;35723;51.194;5.112;2023-10-09T00:08:38;18.95;;;7.75;;
49828;SDS011;35723;51.194;5.112;2023-10-09T00:11:09;22.23;;;8.10;;
49828;SDS011;35723;51.194;5.112;2023-10-09T00:13:41;20.13;;;7.65;;
49828;SDS011;35723;51.194;5.112;2023-10-09T00:16:14;18.35;;;7.38;;
49828;SDS011;35723;51.194;5.112;2023-10-09T00:18:41;18.45;;;7.32;;
49828;SDS011;35723;51.194;5.112;2023-10-09T00:21:17;20.52;;;8.13;;
49828;SDS011;35723;51.194;5.112;2023-10-09T00:23:47;22.27;;;8.20;;
49828;SDS011;35723;51.194;5.112;2023-10-09T00:26:36;24.45;;;8.43;;
49828;SDS011;35723;51.194;5.112;2023-10-09T00:29:08;19.27;;;7.93;;
49828;SDS011;35723;51.194;5.112;2023-10-09T00:31:40;20.52;;;7.72;;
49828;SDS011;35723;51.194;5.112;2023-10-09T00:34:18;18.58;;;7.47;;
49828;SDS011;35723;51.194;5.112;2023-10-09T00:36:48;18.33;;;7.60;;
49828;SDS011;35723;51.194;5.112;2023-10-09T00:39:20;19.55;;;8.10;;
49828;SDS011;35723;51.194;5.112;2023-10-09T00:42:08;20.50;;;7.63;;
49828;SDS011;35723;51.194;5.112;2023-10-09T00:44:39;20.23;;;7.72;;
49828;SDS011;35723;51.194;5.112;2023-10-09T00:47:12;18.90;;;8.23;;
49828;SDS011;35723;51.194;5.112;2023-10-09T00:49:49;21.58;;;7.90;;
49828;SDS011;35723;51.194;5.112;2023-10-09T00:52:23;17.60;;;7.72;;
49828;SDS011;35723;51.194;5.112;2023-10-09T00:55:04;18.52;;;7.68;;
49828;SDS011;35723;51.194;5.112;2023-10-09T00:57:39;19.65;;;8.00;;
49828;SDS011;35723;51.194;5.112;2023-10-09T01:00:07;20.45;;;7.70;;
49828;SDS011;35723;51.194;5.112;2023-10-09T01:02:50;20.13;;;7.80;;
49828;SDS011;35723;51.194;5.112;2023-10-09T01:05:35;20.17;;;8.02;;
49828;SDS011;35723;51.194;5.112;2023-10-09T01:08:01;21.58;;;8.32;;
49828;SDS011;35723;51.194;5.112;2023-10-09T01:10:44;18.35;;;7.93;;
49828;SDS011;35723;51.194;5.112;2023-10-09T01:13:16;23.70;;;8.23;;
49828;SDS011;35723;51.194;5.112;2023-10-09T01:15:43;25.40;;;8.23;;
49828;SDS011;35723;51.194;5.112;2023-10-09T01:18:09;18.83;;;7.32;;
49828;SDS011;35723;51.194;5.112;2023-10-09T01:20:36;21.17;;;7.60;;
49828;SDS011;35723;51.194;5.112;2023-10-09T01:23:08;22.05;;;7.85;;
49828;SDS011;35723;51.194;5.112;2023-10-09T01:25:35;19.42;;;7.43;;
49828;SDS011;35723;51.194;5.112;2023-10-09T01:28:09;22.23;;;7.72;;
49828;SDS011;35723;51.194;5.112;2023-10-09T01:30:35;21.23;;;8.50;;
49828;SDS011;35723;51.194;5.112;2023-10-09T01:33:06;18.27;;;7.75;;
49828;SDS011;35723;51.194;5.112;2023-10-09T01:38:12;19.95;;;7.65;;
49828;SDS011;35723;51.194;5.112;2023-10-09T01:40:39;19.10;;;7.88;;
49828;SDS011;35723;51.194;5.112;2023-10-09T01:43:05;22.98;;;8.05;;
49828;SDS011;35723;51.194;5.112;2023-10-09T01:45:35;17.17;;;7.50;;
49828;SDS011;35723;51.194;5.112;2023-10-09T01:48:07;22.35;;;8.23;;
49828;SDS011;35723;51.194;5.112;2023-10-09T01:50:33;23.13;;;8.68;;
49828;SDS011;35723;51.194;5.112;2023-10-09T01:53:06;19.38;;;7.88;;
49828;SDS011;35723;51.194;5.112;2023-10-09T01:55:33;23.05;;;8.38;;
49828;SDS011;35723;51.194;5.112;2023-10-09T02:00:49;20.37;;;8.20;;
49828;SDS011;35723;51.194;5.112;2023-10-09T02:03:22;20.77;;;8.50;;
49828;SDS011;35723;51.194;5.112;2023-10-09T02:05:52;21.23;;;8.23;;
49828;SDS011;35723;51.194;5.112;2023-10-09T02:08:18;18.40;;;7.85;;
49828;SDS011;35723;51.194;5.112;2023-10-09T02:10:54;19.85;;;7.57;;
49828;SDS011;35723;51.194;5.112;2023-10-09T02:13:21;22.15;;;8.30;;
49828;SDS011;35723;51.194;5.112;2023-10-09T02:15:59;18.98;;;8.02;;
49828;SDS011;35723;51.194;5.112;2023-10-09T02:18:40;18.83;;;8.35;;
49828;SDS011;35723;51.194;5.112;2023-10-09T02:21:20;22.27;;;8.55;;
49828;SDS011;35723;51.194;5.112;2023-10-09T02:24:00;20.15;;;8.55;;
49828;SDS011;35723;51.194;5.112;2023-10-09T02:26:31;21.08;;;8.30;;
49828;SDS011;35723;51.194;5.112;2023-10-09T02:29:05;19.55;;;8.32;;
49828;SDS011;35723;51.194;5.112;2023-10-09T02:31:43;22.27;;;8.57;;
49828;SDS011;35723;51.194;5.112;2023-10-09T02:36:49;24.67;;;8.20;;
49828;SDS011;35723;51.194;5.112;2023-10-09T02:39:22;22.05;;;8.65;;
49828;SDS011;35723;51.194;5.112;2023-10-09T02:41:55;20.73;;;7.95;;
49828;SDS011;35723;51.194;5.112;2023-10-09T02:44:40;19.60;;;8.35;;
49828;SDS011;35723;51.194;5.112;2023-10-09T02:47:14;20.55;;;8.70;;
49828;SDS011;35723;51.194;5.112;2023-10-09T02:49:49;23.15;;;8.90;;
49828;SDS011;35723;51.194;5.112;2023-10-09T02:52:15;23.60;;;8.73;;
49828;SDS011;35723;51.194;5.112;2023-10-09T02:54:49;18.88;;;8.30;;
49828;SDS011;35723;51.194;5.112;2023-10-09T02:57:25;22.90;;;9.73;;
49828;SDS011;35723;51.194;5.112;2023-10-09T03:00:02;22.73;;;9.98;;
49828;SDS011;35723;51.194;5.112;2023-10-09T03:05:01;19.67;;;9.10;;
49828;SDS011;35723;51.194;5.112;2023-10-09T03:07:28;22.60;;;9.13;;
49828;SDS011;35723;51.194;5.112;2023-10-09T03:09:54;20.98;;;9.00;;
49828;SDS011;35723;51.194;5.112;2023-10-09T03:12:20;24.95;;;9.90;;
49828;SDS011;35723;51.194;5.112;2023-10-09T03:14:51;23.38;;;8.90;;
49828;SDS011;35723;51.194;5.112;2023-10-09T03:17:17;22.52;;;9.60;;
49828;SDS011;35723;51.194;5.112;2023-10-09T03:19:43;23.85;;;9.57;;
49828;SDS011;35723;51.194;5.112;2023-10-09T03:22:11;23.23;;;9.80;;
49828;SDS011;35723;51.194;5.112;2023-10-09T03:24:36;23.15;;;9.20;;
49828;SDS011;35723;51.194;5.112;2023-10-09T03:27:09;21.92;;;9.93;;
49828;SDS011;35723;51.194;5.112;2023-10-09T03:29:36;22.20;;;9.77;;
49828;SDS011;35723;51.194;5.112;2023-10-09T03:32:02;22.95;;;9.52;;
49828;SDS011;35723;51.194;5.112;2023-10-09T03:34:28;23.52;;;9.88;;
49828;SDS011;35723;51.194;5.112;2023-10-09T03:36:56;23.63;;;9.43;;
49828;SDS011;35723;51.194;5.112;2023-10-09T03:39:31;22.58;;;9.80;;
49828;SDS011;35723;51.194;5.112;2023-10-09T03:42:12;25.52;;;10.27;;
49828;SDS011;35723;51.194;5.112;2023-10-09T03:44:44;24.47;;;9.90;;
49828;SDS011;35723;51.194;5.112;2023-10-09T03:47:17;23.30;;;10.32;;
49828;SDS011;35723;51.194;5.112;2023-10-09T03:49:47;23.75;;;9.85;;
49828;SDS011;35723;51.194;5.112;2023-10-09T03:52:17;27.45;;;10.73;;
49828;SDS011;35723;51.194;5.112;2023-10-09T03:54:43;25.52;;;10.63;;
49828;SDS011;35723;51.194;5.112;2023-10-09T03:57:11;23.95;;;9.90;;
49828;SDS011;35723;51.194;5.112;2023-10-09T03:59:47;23.00;;;10.15;;
49828;SDS011;35723;51.194;5.112;2023-10-09T04:02:13;23.52;;;10.18;;
49828;SDS011;35723;51.194;5.112;2023-10-09T04:04:40;22.23;;;10.02;;
49828;SDS011;35723;51.194;5.112;2023-10-09T04:07:11;23.67;;;9.93;;
49828;SDS011;35723;51.194;5.112;2023-10-09T04:09:43;24.70;;;10.60;;
49828;SDS011;35723;51.194;5.112;2023-10-09T04:12:18;22.02;;;9.85;;
49828;SDS011;35723;51.194;5.112;2023-10-09T04:14:50;24.25;;;10.27;;
49828;SDS011;35723;51.194;5.112;2023-10-09T04:17:26;22.55;;;9.95;;
49828;SDS011;35723;51.194;5.112;2023-10-09T04:19:55;23.60;;;9.80;;
49828;SDS011;35723;51.194;5.112;2023-10-09T04:22:40;22.30;;;10.27;;
49828;SDS011;35723;51.194;5.112;2023-10-09T04:25:24;24.42;;;10.25;;
49828;SDS011;35723;51.194;5.112;2023-10-09T04:27:54;25.85;;;10.88;;
49828;SDS011;35723;51.194;5.112;2023-10-09T04:30:43;25.17;;;11.15;;
49828;SDS011;35723;51.194;5.112;2023-10-09T04:33:31;22.35;;;9.82;;
49828;SDS011;35723;51.194;5.112;2023-10-09T04:39:01;27.65;;;10.07;;
49828;SDS011;35723;51.194;5.112;2023-10-09T04:41:27;22.67;;;10.45;;
49828;SDS011;35723;51.194;5.112;2023-10-09T04:43:53;25.27;;;10.00;;
49828;SDS011;35723;51.194;5.112;2023-10-09T04:46:30;24.67;;;9.40;;
49828;SDS011;35723;51.194;5.112;2023-10-09T04:49:09;21.55;;;9.35;;
49828;SDS011;35723;51.194;5.112;2023-10-09T04:51:55;22.73;;;9.43;;
49828;SDS011;35723;51.194;5.112;2023-10-09T04:54:31;23.48;;;9.93;;
49828;SDS011;35723;51.194;5.112;2023-10-09T04:57:25;23.88;;;10.27;;
49828;SDS011;35723;51.194;5.112;2023-10-09T04:59:51;22.20;;;9.45;;
49828;SDS011;35723;51.194;5.112;2023-10-09T05:02:17;25.25;;;10.13;;
49828;SDS011;35723;51.194;5.112;2023-10-09T05:04:48;24.67;;;10.05;;
49828;SDS011;35723;51.194;5.112;2023-10-09T05:07:34;26.38;;;10.63;;
49828;SDS011;35723;51.194;5.112;2023-10-09T05:10:19;25.40;;;10.65;;
49828;SDS011;35723;51.194;5.112;2023-10-09T05:12:50;26.58;;;11.10;;
49828;SDS011;35723;51.194;5.112;2023-10-09T05:15:24;22.88;;;10.75;;
49828;SDS011;35723;51.194;5.112;2023-10-09T05:17:54;25.27;;;10.80;;
49828;SDS011;35723;51.194;5.112;2023-10-09T05:20:24;25.20;;;10.57;;
49828;SDS011;35723;51.194;5.112;2023-10-09T05:22:53;28.35;;;10.82;;
49828;SDS011;35723;51.194;5.112;2023-10-09T05:25:44;22.77;;;10.50;;
49828;SDS011;35723;51.194;5.112;2023-10-09T05:28:20;27.58;;;11.52;;
49828;SDS011;35723;51.194;5.112;2023-10-09T05:31:13;25.50;;;11.27;;
49828;SDS011;35723;51.194;5.112;2023-10-09T05:33:59;27.58;;;11.55;;
49828;SDS011;35723;51.194;5.112;2023-10-09T05:36:27;26.40;;;11.80;;
49828;SDS011;35723;51.194;5.112;2023-10-09T05:38:52;25.50;;;11.80;;
49828;SDS011;35723;51.194;5.112;2023-10-09T05:41:24;25.42;;;12.43;;
49828;SDS011;35723;51.194;5.112;2023-10-09T05:44:12;30.38;;;12.63;;
49828;SDS011;35723;51.194;5.112;2023-10-09T05:46:57;27.02;;;12.23;;
49828;SDS011;35723;51.194;5.112;2023-10-09T05:49:49;24.75;;;11.98;;
49828;SDS011;35723;51.194;5.112;2023-10-09T05:52:22;27.85;;;11.82;;
49828;SDS011;35723;51.194;5.112;2023-10-09T05:55:07;25.63;;;12.07;;
49828;SDS011;35723;51.194;5.112;2023-10-09T05:57:51;27.27;;;12.02;;
49828;SDS011;35723;51.194;5.112;2023-10-09T06:00:21;28.45;;;12.38;;
49828;SDS011;35723;51.194;5.112;2023-10-09T06:03:05;27.73;;;12.70;;
49828;SDS011;35723;51.194;5.112;2023-10-09T06:08:21;27.05;;;12.90;;
49828;SDS011;35723;51.194;5.112;2023-10-09T06:11:12;26.67;;;12.75;;
49828;SDS011;35723;51.194;5.112;2023-10-09T06:14:00;27.45;;;13.15;;
49828;SDS011;35723;51.194;5.112;2023-10-09T06:16:40;27.70;;;12.30;;
49828;SDS011;35723;51.194;5.112;2023-10-09T06:19:12;28.42;;;13.65;;
49828;SDS011;35723;51.194;5.112;2023-10-09T06:21:47;29.00;;;12.93;;
49828;SDS011;35723;51.194;5.112;2023-10-09T06:24:22;29.83;;;12.63;;
49828;SDS011;35723;51.194;5.112;2023-10-09T06:26:48;28.75;;;13.00;;
49828;SDS011;35723;51.194;5.112;2023-10-09T06:29:24;29.88;;;13.77;;
49828;SDS011;35723;51.194;5.112;2023-10-09T06:32:07;29.98;;;13.20;;
49828;SDS011;35723;51.194;5.112;2023-10-09T06:34:57;28.38;;;14.20;;
49828;SDS011;35723;51.194;5.112;2023-10-09T06:38:02;32.70;;;14.95;;
49828;SDS011;35723;51.194;5.112;2023-10-09T06:40:37;30.60;;;14.48;;
49828;SDS011;35723;51.194;5.112;2023-10-09T06:43:23;33.25;;;14.60;;
49828;SDS011;35723;51.194;5.112;2023-10-09T06:48:41;29.55;;;14.38;;
49828;SDS011;35723;51.194;5.112;2023-10-09T06:51:10;34.90;;;15.23;;
49828;SDS011;35723;51.194;5.112;2023-10-09T06:53:52;31.00;;;14.67;;
49828;SDS011;35723;51.194;5.112;2023-10-09T06:56:36;31.27;;;15.30;;
49828;SDS011;35723;51.194;5.112;2023-10-09T06:59:03;30.38;;;14.32;;
49828;SDS011;35723;51.194;5.112;2023-10-09T07:01:40;31.75;;;15.25;;
49828;SDS011;35723;51.194;5.112;2023-10-09T07:04:09;32.85;;;14.60;;
49828;SDS011;35723;51.194;5.112;2023-10-09T07:06:43;32.75;;;14.57;;
49828;SDS011;35723;51.194;5.112;2023-10-09T07:09:14;31.02;;;14.77;;
49828;SDS011;35723;51.194;5.112;2023-10-09T07:11:41;32.67;;;15.90;;
49828;SDS011;35723;51.194;5.112;2023-10-09T07:14:08;30.33;;;14.75;;
49828;SDS011;35723;51.194;5.112;2023-10-09T07:16:54;34.30;;;16.25;;
49828;SDS011;35723;51.194;5.112;2023-10-09T07:19:23;38.05;;;15.75;;
49828;SDS011;35723;51.194;5.112;2023-10-09T07:21:59;32.33;;;16.27;;
49828;SDS011;35723;51.194;5.112;2023-10-09T07:24:31;29.13;;;15.27;;
49828;SDS011;35723;51.194;5.112;2023-10-09T07:27:08;31.33;;;16.20;;
49828;SDS011;35723;51.194;5.112;2023-10-09T07:29:40;31.15;;;15.27;;
49828;SDS011;35723;51.194;5.112;2023-10-09T07:32:15;32.28;;;14.70;;
49828;SDS011;35723;51.194;5.112;2023-10-09T07:34:48;29.52;;;15.05;;
49828;SDS011;35723;51.194;5.112;2023-10-09T07:37:26;28.90;;;14.55;;
49828;SDS011;35723;51.194;5.112;2023-10-09T07:40:03;31.92;;;14.45;;
49828;SDS011;35723;51.194;5.112;2023-10-09T07:42:32;34.05;;;15.18;;
49828;SDS011;35723;51.194;5.112;2023-10-09T07:45:09;31.10;;;13.90;;
49828;SDS011;35723;51.194;5.112;2023-10-09T07:47:48;32.00;;;14.90;;
49828;SDS011;35723;51.194;5.112;2023-10-09T07:50:36;36.35;;;14.77;;
49828;SDS011;35723;51.194;5.112;2023-10-09T07:53:09;32.25;;;15.15;;
49828;SDS011;35723;51.194;5.112;2023-10-09T07:55:46;33.90;;;15.13;;
49828;SDS011;35723;51.194;5.112;2023-10-09T07:58:23;32.50;;;14.85;;
49828;SDS011;35723;51.194;5.112;2023-10-09T08:00:56;37.72;;;15.88;;
49828;SDS011;35723;51.194;5.112;2023-10-09T08:03:35;34.63;;;15.52;;
49828;SDS011;35723;51.194;5.112;2023-10-09T08:06:02;31.50;;;14.40;;
49828;SDS011;35723;51.194;5.112;2023-10-09T08:08:46;29.55;;;14.40;;
49828;SDS011;35723;51.194;5.112;2023-10-09T08:11:31;31.05;;;15.77;;
49828;SDS011;35723;51.194;5.112;2023-10-09T08:14:06;30.98;;;15.13;;
49828;SDS011;35723;51.194;5.112;2023-10-09T08:16:46;32.00;;;15.27;;
49828;SDS011;35723;51.194;5.112;2023-10-09T08:19:12;28.90;;;14.85;;
49828;SDS011;35723;51.194;5.112;2023-10-09T08:21:56;30.17;;;14.85;;
49828;SDS011;35723;51.194;5.112;2023-10-09T08:24:40;28.20;;;14.70;;
49828;SDS011;35723;51.194;5.112;2023-10-09T08:27:24;32.25;;;15.70;;
49828;SDS011;35723;51.194;5.112;2023-10-09T08:30:00;43.55;;;16.20;;
49828;SDS011;35723;51.194;5.112;2023-10-09T08:32:46;33.03;;;16.50;;
49828;SDS011;35723;51.194;5.112;2023-10-09T08:35:50;34.95;;;16.02;;
49828;SDS011;35723;51.194;5.112;2023-10-09T08:38:16;31.42;;;17.17;;
49828;SDS011;35723;51.194;5.112;2023-10-09T08:40:52;31.95;;;16.65;;
49828;SDS011;35723;51.194;5.112;2023-10-09T08:43:23;31.77;;;16.50;;
49828;SDS011;35723;51.194;5.112;2023-10-09T08:45:49;33.13;;;16.25;;
49828;SDS011;35723;51.194;5.112;2023-10-09T08:48:18;31.40;;;16.05;;
49828;SDS011;35723;51.194;5.112;2023-10-09T08:50:46;30.25;;;15.40;;
49828;SDS011;35723;51.194;5.112;2023-10-09T08:53:14;32.33;;;15.52;;
49828;SDS011;35723;51.194;5.112;2023-10-09T08:55:41;31.48;;;15.70;;
49828;SDS011;35723;51.194;5.112;2023-10-09T08:58:09;33.42;;;15.57;;
49828;SDS011;35723;51.194;5.112;2023-10-09T09:00:45;36.33;;;15.73;;
49828;SDS011;35723;51.194;5.112;2023-10-09T09:03:15;29.13;;;14.73;;
49828;SDS011;35723;51.194;5.112;2023-10-09T09:05:56;33.28;;;14.98;;
49828;SDS011;35723;51.194;5.112;2023-10-09T09:08:30;31.27;;;14.15;;
49828;SDS011;35723;51.194;5.112;2023-10-09T09:11:01;27.83;;;14.25;;
49828;SDS011;35723;51.194;5.112;2023-10-09T09:13:41;32.33;;;14.50;;
49828;SDS011;35723;51.194;5.112;2023-10-09T09:16:17;29.30;;;14.95;;
49828;SDS011;35723;51.194;5.112;2023-10-09T09:21:21;31.90;;;14.70;;
49828;SDS011;35723;51.194;5.112;2023-10-09T09:24:08;30.92;;;14.65;;
49828;SDS011;35723;51.194;5.112;2023-10-09T09:27:01;30.92;;;13.38;;
49828;SDS011;35723;51.194;5.112;2023-10-09T09:32:12;28.88;;;14.32;;
49828;SDS011;35723;51.194;5.112;2023-10-09T09:34:51;28.23;;;13.55;;
49828;SDS011;35723;51.194;5.112;2023-10-09T09:37:27;29.73;;;13.77;;
49828;SDS011;35723;51.194;5.112;2023-10-09T09:39:58;29.80;;;13.48;;
49828;SDS011;35723;51.194;5.112;2023-10-09T09:42:26;32.45;;;13.85;;
49828;SDS011;35723;51.194;5.112;2023-10-09T09:44:53;27.40;;;12.90;;
49828;SDS011;35723;51.194;5.112;2023-10-09T09:47:21;31.63;;;13.18;;
49828;SDS011;35723;51.194;5.112;2023-10-09T09:49:53;29.90;;;12.87;;
49828;SDS011;35723;51.194;5.112;2023-10-09T09:52:25;27.05;;;13.57;;
49828;SDS011;35723;51.194;5.112;2023-10-09T09:54:53;30.10;;;13.00;;
49828;SDS011;35723;51.194;5.112;2023-10-09T09:57:19;28.75;;;12.82;;
49828;SDS011;35723;51.194;5.112;2023-10-09T09:59:51;29.27;;;13.20;;
49828;SDS011;35723;51.194;5.112;2023-10-09T10:02:27;31.05;;;12.55;;
49828;SDS011;35723;51.194;5.112;2023-10-09T10:04:58;25.63;;;12.35;;
49828;SDS011;35723;51.194;5.112;2023-10-09T10:07:29;26.67;;;12.52;;
49828;SDS011;35723;51.194;5.112;2023-10-09T10:09:56;29.17;;;12.32;;
49828;SDS011;35723;51.194;5.112;2023-10-09T10:15:13;24.52;;;11.43;;
49828;SDS011;35723;51.194;5.112;2023-10-09T10:20:24;25.73;;;11.00;;
49828;SDS011;35723;51.194;5.112;2023-10-09T10:23:35;26.45;;;11.57;;
49828;SDS011;35723;51.194;5.112;2023-10-09T10:25:45;28.65;;;11.88;;
49828;SDS011;35723;51.194;5.112;2023-10-09T10:28:24;26.60;;;10.93;;
49828;SDS011;35723;51.194;5.112;2023-10-09T10:31:01;25.92;;;11.13;;
49828;SDS011;35723;51.194;5.112;2023-10-09T10:36:22;25.88;;;11.00;;
49828;SDS011;35723;51.194;5.112;2023-10-09T10:39:10;24.23;;;10.80;;
49828;SDS011;35723;51.194;5.112;2023-10-09T10:41:55;24.55;;;10.10;;
49828;SDS011;35723;51.194;5.112;2023-10-09T10:44:25;25.50;;;11.38;;
49828;SDS011;35723;51.194;5.112;2023-10-09T10:47:08;23.87;;;10.13;;
49828;SDS011;35723;51.194;5.112;2023-10-09T10:50:12;26.40;;;10.77;;
49828;SDS011;35723;51.194;5.112;2023-10-09T10:53:11;23.73;;;10.95;;
49828;SDS011;35723;51.194;5.112;2023-10-09T10:55:39;22.00;;;10.68;;
49828;SDS011;35723;51.194;5.112;2023-10-09T10:58:21;28.33;;;11.13;;
49828;SDS011;35723;51.194;5.112;2023-10-09T11:00:56;23.48;;;10.18;;
49828;SDS011;35723;51.194;5.112;2023-10-09T11:03:22;22.60;;;10.73;;
49828;SDS011;35723;51.194;5.112;2023-10-09T11:05:54;25.42;;;11.35;;
49828;SDS011;35723;51.194;5.112;2023-10-09T11:08:24;28.08;;;11.57;;
49828;SDS011;35723;51.194;5.112;2023-10-09T11:11:12;28.33;;;11.82;;
49828;SDS011;35723;51.194;5.112;2023-10-09T11:13:42;26.90;;;11.20;;
49828;SDS011;35723;51.194;5.112;2023-10-09T11:16:23;27.88;;;11.10;;
49828;SDS011;35723;51.194;5.112;2023-10-09T11:19:06;22.88;;;11.07;;
49828;SDS011;35723;51.194;5.112;2023-10-09T11:21:57;24.80;;;10.30;;
49828;SDS011;35723;51.194;5.112;2023-10-09T11:24:46;22.13;;;10.52;;
49828;SDS011;35723;51.194;5.112;2023-10-09T11:27:26;27.77;;;11.35;;
49828;SDS011;35723;51.194;5.112;2023-10-09T11:29:57;26.38;;;10.73;;
49828;SDS011;35723;51.194;5.112;2023-10-09T11:35:13;24.02;;;10.98;;
49828;SDS011;35723;51.194;5.112;2023-10-09T11:37:59;25.33;;;10.93;;
49828;SDS011;35723;51.194;5.112;2023-10-09T11:40:32;22.90;;;10.48;;
49828;SDS011;35723;51.194;5.112;2023-10-09T11:43:46;26.23;;;10.10;;
49828;SDS011;35723;51.194;5.112;2023-10-09T11:46:19;25.58;;;10.25;;
49828;SDS011;35723;51.194;5.112;2023-10-09T11:49:08;21.73;;;10.10;;
49828;SDS011;35723;51.194;5.112;2023-10-09T11:51:47;27.13;;;11.00;;
49828;SDS011;35723;51.194;5.112;2023-10-09T11:54:32;24.70;;;10.65;;
49828;SDS011;35723;51.194;5.112;2023-10-09T11:56:58;24.42;;;11.10;;
49828;SDS011;35723;51.194;5.112;2023-10-09T11:59:30;25.88;;;11.25;;
49828;SDS011;35723;51.194;5.112;2023-10-09T12:02:06;26.27;;;11.30;;
49828;SDS011;35723;51.194;5.112;2023-10-09T12:04:38;23.27;;;10.15;;
49828;SDS011;35723;51.194;5.112;2023-10-09T12:07:07;24.70;;;10.10;;
49828;SDS011;35723;51.194;5.112;2023-10-09T12:09:34;25.35;;;10.30;;
49828;SDS011;35723;51.194;5.112;2023-10-09T12:12:03;28.33;;;11.98;;
49828;SDS011;35723;51.194;5.112;2023-10-09T12:14:31;25.40;;;11.25;;
49828;SDS011;35723;51.194;5.112;2023-10-09T12:17:02;24.50;;;11.52;;
49828;SDS011;35723;51.194;5.112;2023-10-09T12:19:32;28.30;;;11.20;;
49828;SDS011;35723;51.194;5.112;2023-10-09T12:22:00;23.63;;;11.40;;
49828;SDS011;35723;51.194;5.112;2023-10-09T12:24:28;31.77;;;12.43;;
49828;SDS011;35723;51.194;5.112;2023-10-09T12:26:58;29.30;;;12.48;;
49828;SDS011;35723;51.194;5.112;2023-10-09T12:29:24;28.70;;;12.52;;
49828;SDS011;35723;51.194;5.112;2023-10-09T12:31:55;28.75;;;12.07;;
49828;SDS011;35723;51.194;5.112;2023-10-09T12:34:24;28.13;;;12.98;;
49828;SDS011;35723;51.194;5.112;2023-10-09T12:36:59;24.38;;;11.95;;
49828;SDS011;35723;51.194;5.112;2023-10-09T12:39:27;31.38;;;12.20;;
49828;SDS011;35723;51.194;5.112;2023-10-09T12:41:58;27.85;;;11.82;;
49828;SDS011;35723;51.194;5.112;2023-10-09T12:44:31;28.98;;;13.07;;
49828;SDS011;35723;51.194;5.112;2023-10-09T12:47:07;27.63;;;11.95;;
49828;SDS011;35723;51.194;5.112;2023-10-09T12:49:36;28.05;;;11.20;;
49828;SDS011;35723;51.194;5.112;2023-10-09T12:52:06;27.30;;;12.05;;
49828;SDS011;35723;51.194;5.112;2023-10-09T12:54:40;25.42;;;11.10;;
49828;SDS011;35723;51.194;5.112;2023-10-09T12:57:12;28.65;;;11.38;;
49828;SDS011;35723;51.194;5.112;2023-10-09T12:59:40;28.55;;;12.68;;
49828;SDS011;35723;51.194;5.112;2023-10-09T13:02:16;30.80;;;11.80;;
49828;SDS011;35723;51.194;5.112;2023-10-09T13:05:00;28.58;;;12.45;;
49828;SDS011;35723;51.194;5.112;2023-10-09T13:07:28;31.63;;;12.25;;
49828;SDS011;35723;51.194;5.112;2023-10-09T13:09:54;27.33;;;11.73;;
49828;SDS011;35723;51.194;5.112;2023-10-09T13:12:37;28.25;;;12.60;;
49828;SDS011;35723;51.194;5.112;2023-10-09T13:15:09;26.05;;;11.73;;
49828;SDS011;35723;51.194;5.112;2023-10-09T13:17:36;29.05;;;11.77;;
49828;SDS011;35723;51.194;5.112;2023-10-09T13:20:02;25.25;;;11.75;;
49828;SDS011;35723;51.194;5.112;2023-10-09T13:22:41;27.17;;;14.10;;
49828;SDS011;35723;51.194;5.112;2023-10-09T13:25:08;28.92;;;13.73;;
49828;SDS011;35723;51.194;5.112;2023-10-09T13:27:41;33.95;;;13.57;;
49828;SDS011;35723;51.194;5.112;2023-10-09T13:30:16;33.22;;;14.80;;
49828;SDS011;35723;51.194;5.112;2023-10-09T13:32:47;31.95;;;14.27;;
49828;SDS011;35723;51.194;5.112;2023-10-09T13:35:15;32.33;;;15.18;;
49828;SDS011;35723;51.194;5.112;2023-10-09T13:37:42;32.47;;;14.48;;
49828;SDS011;35723;51.194;5.112;2023-10-09T13:40:09;28.33;;;12.70;;
49828;SDS011;35723;51.194;5.112;2023-10-09T13:42:36;29.25;;;13.48;;
49828;SDS011;35723;51.194;5.112;2023-10-09T13:45:03;32.95;;;13.98;;
49828;SDS011;35723;51.194;5.112;2023-10-09T13:47:41;33.72;;;14.05;;
49828;SDS011;35723;51.194;5.112;2023-10-09T13:50:09;31.08;;;13.88;;
49828;SDS011;35723;51.194;5.112;2023-10-09T13:52:35;31.92;;;13.75;;
49828;SDS011;35723;51.194;5.112;2023-10-09T13:55:04;30.88;;;14.25;;
49828;SDS011;35723;51.194;5.112;2023-10-09T13:57:40;29.75;;;14.05;;
49828;SDS011;35723;51.194;5.112;2023-10-09T14:00:10;31.35;;;14.23;;
49828;SDS011;35723;51.194;5.112;2023-10-09T14:02:58;31.60;;;13.27;;
49828;SDS011;35723;51.194;5.112;2023-10-09T14:05:27;28.73;;;12.85;;
49828;SDS011;35723;51.194;5.112;2023-10-09T14:07:53;26.25;;;12.85;;
49828;SDS011;35723;51.194;5.112;2023-10-09T14:10:25;27.05;;;12.80;;
49828;SDS011;35723;51.194;5.112;2023-10-09T14:12:55;26.83;;;11.38;;
49828;SDS011;35723;51.194;5.112;2023-10-09T14:15:22;30.55;;;11.93;;
49828;SDS011;35723;51.194;5.112;2023-10-09T14:17:48;28.10;;;12.85;;
49828;SDS011;35723;51.194;5.112;2023-10-09T14:20:20;26.23;;;11.85;;
49828;SDS011;35723;51.194;5.112;2023-10-09T14:22:58;24.42;;;11.00;;
49828;SDS011;35723;51.194;5.112;2023-10-09T14:25:31;27.98;;;12.48;;
49828;SDS011;35723;51.194;5.112;2023-10-09T14:27:58;32.85;;;13.68;;
49828;SDS011;35723;51.194;5.112;2023-10-09T14:30:23;27.30;;;12.23;;
49828;SDS011;35723;51.194;5.112;2023-10-09T14:32:58;29.73;;;12.30;;
49828;SDS011;35723;51.194;5.112;2023-10-09T14:35:26;25.05;;;12.20;;
49828;SDS011;35723;51.194;5.112;2023-10-09T14:37:55;25.42;;;10.88;;
49828;SDS011;35723;51.194;5.112;2023-10-09T14:40:21;27.98;;;11.38;;
49828;SDS011;35723;51.194;5.112;2023-10-09T14:42:55;31.50;;;13.55;;
49828;SDS011;35723;51.194;5.112;2023-10-09T14:45:23;26.42;;;12.05;;
49828;SDS011;35723;51.194;5.112;2023-10-09T14:47:53;29.80;;;13.20;;
49828;SDS011;35723;51.194;5.112;2023-10-09T14:50:20;28.55;;;12.85;;
49828;SDS011;35723;51.194;5.112;2023-10-09T14:52:47;28.83;;;14.18;;
49828;SDS011;35723;51.194;5.112;2023-10-09T14:55:15;32.53;;;14.40;;
49828;SDS011;35723;51.194;5.112;2023-10-09T14:57:46;26.95;;;14.00;;
49828;SDS011;35723;51.194;5.112;2023-10-09T15:00:15;28.65;;;13.60;;
49828;SDS011;35723;51.194;5.112;2023-10-09T15:02:41;32.22;;;13.40;;
49828;SDS011;35723;51.194;5.112;2023-10-09T15:05:06;28.25;;;12.63;;
49828;SDS011;35723;51.194;5.112;2023-10-09T15:07:36;30.30;;;12.48;;
49828;SDS011;35723;51.194;5.112;2023-10-09T15:10:06;30.10;;;11.90;;
49828;SDS011;35723;51.194;5.112;2023-10-09T15:12:34;26.95;;;11.43;;
49828;SDS011;35723;51.194;5.112;2023-10-09T15:15:05;26.50;;;11.00;;
49828;SDS011;35723;51.194;5.112;2023-10-09T15:17:38;26.67;;;11.05;;
49828;SDS011;35723;51.194;5.112;2023-10-09T15:20:10;27.88;;;10.90;;
49828;SDS011;35723;51.194;5.112;2023-10-09T15:22:39;26.60;;;11.45;;
49828;SDS011;35723;51.194;5.112;2023-10-09T15:25:08;29.30;;;11.63;;
49828;SDS011;35723;51.194;5.112;2023-10-09T15:27:39;24.48;;;10.35;;
49828;SDS011;35723;51.194;5.112;2023-10-09T15:30:05;25.63;;;10.27;;
49828;SDS011;35723;51.194;5.112;2023-10-09T15:32:38;26.02;;;9.85;;
49828;SDS011;35723;51.194;5.112;2023-10-09T15:35:06;24.98;;;9.85;;
49828;SDS011;35723;51.194;5.112;2023-10-09T15:37:35;25.23;;;9.95;;
49828;SDS011;35723;51.194;5.112;2023-10-09T15:40:01;21.83;;;9.35;;